Time;durP1;ratioP1;P1;durP2;ratioP2;P2;SDS_P1;SDS_P2;PMS_P1;PMS_P2;Temp;Humidity;BMP_temperature;BMP_pressure;BME280_temperature;BME280_humidity;BME280_pressure;Samples;Min_cycle;Max_cycle;Signal;HPM_P1;HPM_P2
2022/03/23 00:01:20;;;;;;;;;;;9.60;74.80;;;;;;6172886;23;19908;-90
2022/03/23 00:04:10;;;;;;;;;;;9.50;75.00;;;;;;6190370;23;19982;-90
2022/03/23 00:07:07;;;;;;;;;;;9.50;75.10;;;;;;6219386;23;19969;-89
2022/03/23 00:09:37;;;;;;;;;;;9.40;75.80;;;;;;6193653;23;19912;-90
2022/03/23 00:14:57;;;;;;;;;;;9.30;75.90;;;;;;6099190;23;19909;-90
2022/03/23 00:17:23;;;;;;;;;;;9.30;75.50;;;;;;6132212;23;19905;-91
2022/03/23 00:19:58;;;;;;;;;;;9.30;75.60;;;;;;6132648;23;19932;-91
2022/03/23 00:25:36;;;;;;;;;;;9.20;75.70;;;;;;6124765;23;19905;-91
2022/03/23 00:28:07;;;;;;;;;;;9.20;75.80;;;;;;6133105;23;19905;-91
2022/03/23 00:31:14;;;;;;;;;;;9.20;76.00;;;;;;6132569;23;19928;-89
2022/03/23 00:33:38;;;;;;;;;;;9.10;76.00;;;;;;6157698;23;19924;-90
2022/03/23 00:36:20;;;;;;;;;;;9.10;76.20;;;;;;6150320;23;19952;-91
2022/03/23 00:39:23;;;;;;;;;;;;;;;;;;;;;
2022/03/23 00:42:16;;;;;;;;;;;9.00;76.20;;;;;;6218497;23;19983;-92
2022/03/23 00:44:45;;;;;;;;;;;8.90;76.20;;;;;;6217738;23;19958;-88
2022/03/23 00:47:33;;;;;;;;;;;;;;;;;;;;;
2022/03/23 00:50:10;;;;;;;;;;;8.90;76.40;;;;;;6219332;23;19999;-90
2022/03/23 00:52:47;;;;;;;;;;;8.80;76.50;;;;;;6193556;23;19908;-90
2022/03/23 00:55:20;;;;;;;;;;;8.80;76.60;;;;;;6193845;23;19940;-91
2022/03/23 00:57:51;;;;;;;;;;;8.70;76.60;;;;;;6193634;23;19908;-90
2022/03/23 01:00:39;;;;;;;;;;;8.70;76.60;;;;;;6192476;23;19908;-92
2022/03/23 01:03:08;;;;;;;;;;;8.70;76.50;;;;;;6200239;23;19983;-93
2022/03/23 01:05:41;;;;;;;;;;;8.70;76.60;;;;;;6194143;23;20337;-90
2022/03/23 01:08:15;;;;;;;;;;;8.80;76.50;;;;;;6163835;23;19920;-89
2022/03/23 01:10:42;;;;;;;;;;;8.70;76.60;;;;;;6165195;23;19962;-89
2022/03/23 01:13:07;;;;;;;;;;;8.70;76.70;;;;;;6163988;23;19908;-90
2022/03/23 01:15:38;;;;;;;;;;;8.70;76.70;;;;;;6174120;23;19947;-89
2022/03/23 01:18:26;;;;;;;;;;;8.80;76.40;;;;;;6188815;23;19893;-89
2022/03/23 01:21:00;;;;;;;;;;;8.90;76.10;;;;;;6164561;23;19972;-89
2022/03/23 01:23:46;;;;;;;;;;;9.00;75.70;;;;;;6187231;23;19907;-90
2022/03/23 01:26:19;;;;;;;;;;;9.10;75.30;;;;;;6170047;23;19911;-91
2022/03/23 01:28:47;;;;;;;;;;;9.20;74.80;;;;;;6137857;23;19915;-89
2022/03/23 01:31:53;;;;;;;;;;;9.30;74.30;;;;;;6162499;23;20365;-89
2022/03/23 01:34:20;;;;;;;;;;;9.40;74.10;;;;;;6186479;23;19915;-90
2022/03/23 01:37:16;;;;;;;;;;;9.40;74.00;;;;;;6166265;23;19911;-92
2022/03/23 01:39:58;;;;;;;;;;;9.40;74.20;;;;;;6191906;23;19904;-90
2022/03/23 01:42:27;;;;;;;;;;;9.30;74.50;;;;;;6194377;23;19908;-90
2022/03/23 01:45:21;;;;;;;;;;;9.30;74.80;;;;;;6147994;23;19923;-90
2022/03/23 01:47:56;;;;;;;;;;;9.20;75.00;;;;;;6168598;23;19904;-92
2022/03/23 01:50:50;;;;;;;;;;;;;;;;;;;;;
2022/03/23 01:53:47;;;;;;;;;;;9.20;74.80;;;;;;6191129;23;19991;-88
2022/03/23 01:56:20;;;;;;;;;;;9.30;74.50;;;;;;6164005;23;20242;-90
2022/03/23 01:58:51;;;;;;;;;;;9.30;74.10;;;;;;6162837;23;20377;-90
2022/03/23 02:01:37;;;;;;;;;;;9.40;73.90;;;;;;6163308;23;19904;-90
2022/03/23 02:04:29;;;;;;;;;;;9.40;73.70;;;;;;6187163;23;19910;-91
2022/03/23 02:07:24;;;;;;;;;;;;;;;;;;;;;
2022/03/23 02:09:52;;;;;;;;;;;9.50;73.00;;;;;;6188600;23;20278;-89
2022/03/23 02:12:41;;;;;;;;;;;9.50;72.70;;;;;;6162211;23;19908;-89
2022/03/23 02:15:36;;;;;;;;;;;;;;;;;;;;;
2022/03/23 02:18:12;;;;;;;;;;;9.60;72.30;;;;;;6164846;23;19983;-90
2022/03/23 02:20:47;;;;;;;;;;;9.60;72.20;;;;;;6138810;23;19987;-89
2022/03/23 02:23:25;;;;;;;;;;;9.60;72.10;;;;;;6162555;23;19909;-91
2022/03/23 02:26:02;;;;;;;;;;;9.60;72.10;;;;;;6163039;23;19905;-90
2022/03/23 02:28:35;;;;;;;;;;;9.50;72.20;;;;;;6162796;23;19911;-91
2022/03/23 02:31:07;;;;;;;;;;;9.50;72.20;;;;;;6162849;23;19956;-92
2022/03/23 02:34:00;;;;;;;;;;;9.50;72.10;;;;;;6162444;23;19959;-92
2022/03/23 02:37:40;;;;;;;;;;;;;;;;;;;;;
2022/03/23 02:39:59;;;;;;;;;;;;;;;;;;;;;
2022/03/23 02:42:37;;;;;;;;;;;9.50;71.90;;;;;;6189519;23;19987;-89
2022/03/23 02:45:10;;;;;;;;;;;9.40;71.90;;;;;;6140575;23;19947;-89
2022/03/23 02:47:51;;;;;;;;;;;;;;;;;;;;;
2022/03/23 02:50:27;;;;;;;;;;;9.40;72.10;;;;;;6192699;23;19953;-89
2022/03/23 03:02:12;;;;;;;;;;;9.30;72.40;;;;;;6196168;23;19911;-92
2022/03/23 03:04:41;;;;;;;;;;;9.20;72.30;;;;;;6143750;23;19911;-91
2022/03/23 03:07:17;;;;;;;;;;;9.20;72.30;;;;;;6156135;23;20033;-90
2022/03/23 03:09:51;;;;;;;;;;;9.20;72.30;;;;;;6192297;23;19915;-89
2022/03/23 03:12:42;;;;;;;;;;;9.20;72.30;;;;;;6192260;23;20237;-90
2022/03/23 03:15:15;;;;;;;;;;;9.20;72.30;;;;;;6217023;23;19904;-90
2022/03/23 03:17:58;;;;;;;;;;;9.20;72.40;;;;;;6191660;23;19954;-91
2022/03/23 03:26:05;;;;;;;;;;;9.20;72.30;;;;;;6199416;23;19904;-90
2022/03/23 03:28:38;;;;;;;;;;;9.20;72.30;;;;;;6192945;23;19904;-91
2022/03/23 03:31:22;;;;;;;;;;;9.10;72.20;;;;;;6193943;23;19915;-92
2022/03/23 03:34:18;;;;;;;;;;;;;;;;;;;;;
2022/03/23 03:36:57;;;;;;;;;;;9.10;72.10;;;;;;6220247;23;19991;-90
2022/03/23 03:42:30;;;;;;;;;;;;;;;;;;;;;
2022/03/23 03:45:02;;;;;;;;;;;9.00;72.20;;;;;;6220044;23;19987;-91
2022/03/23 03:48:04;;;;;;;;;;;;;;;;;;;;;
2022/03/23 03:50:34;;;;;;;;;;;8.90;72.40;;;;;;6220323;23;19952;-90
2022/03/23 03:53:02;;;;;;;;;;;8.90;72.40;;;;;;6220325;23;19908;-90
2022/03/23 03:55:38;;;;;;;;;;;;;;;;;;;;;
2022/03/23 03:58:18;;;;;;;;;;;;;;;;;;;;;
2022/03/23 04:01:04;;;;;;;;;;;;;;;;;;;;;
2022/03/23 04:03:38;;;;;;;;;;;8.80;72.50;;;;;;6219841;23;19979;-88
2022/03/23 04:09:12;;;;;;;;;;;8.80;72.50;;;;;;6190257;23;19913;-91
2022/03/23 04:12:19;;;;;;;;;;;8.80;72.40;;;;;;6190033;23;19912;-90
2022/03/23 04:14:46;;;;;;;;;;;8.80;72.50;;;;;;6189009;23;19912;-90
2022/03/23 04:17:15;;;;;;;;;;;8.70;72.40;;;;;;6188538;23;19904;-89
2022/03/23 04:19:51;;;;;;;;;;;;;;;;;;;;;
2022/03/23 04:22:31;;;;;;;;;;;8.70;72.50;;;;;;6190771;23;19952;-89
2022/03/23 04:24:59;;;;;;;;;;;8.70;72.50;;;;;;6219968;23;19927;-88
2022/03/23 04:27:28;;;;;;;;;;;8.70;72.50;;;;;;6239133;22;19892;-90
2022/03/23 04:29:58;;;;;;;;;;;8.70;72.60;;;;;;6239688;22;19900;-89
2022/03/23 04:32:26;;;;;;;;;;;8.60;72.50;;;;;;6238934;22;19904;-92
2022/03/23 04:34:56;;;;;;;;;;;8.60;73.20;;;;;;6231545;23;19915;-89
2022/03/23 04:37:31;;;;;;;;;;;8.60;72.60;;;;;;6213990;23;20327;-88
2022/03/23 04:40:02;;;;;;;;;;;8.60;72.60;;;;;;6189378;23;19908;-91
2022/03/23 04:42:40;;;;;;;;;;;8.60;72.70;;;;;;6188642;23;19955;-91
2022/03/23 04:45:12;;;;;;;;;;;8.50;72.70;;;;;;6189151;23;19904;-91
2022/03/23 04:47:56;;;;;;;;;;;8.50;72.80;;;;;;6190405;23;19904;-90
2022/03/23 04:53:28;;;;;;;;;;;8.50;72.90;;;;;;6190128;23;19955;-90
2022/03/23 04:56:05;;;;;;;;;;;8.40;72.90;;;;;;6214538;23;19904;-91
2022/03/23 05:01:28;;;;;;;;;;;8.40;72.90;;;;;;6207569;23;19888;-89
2022/03/23 05:03:54;;;;;;;;;;;8.40;72.90;;;;;;6232297;23;19904;-91
2022/03/23 05:06:48;;;;;;;;;;;8.40;72.90;;;;;;6237749;22;19943;-89
2022/03/23 05:12:05;;;;;;;;;;;8.30;73.00;;;;;;6192081;23;19915;-89
2022/03/23 05:14:34;;;;;;;;;;;8.30;73.00;;;;;;6215684;23;19912;-91
2022/03/23 05:17:03;;;;;;;;;;;8.30;73.10;;;;;;6214865;23;19905;-90
2022/03/23 05:19:39;;;;;;;;;;;8.30;73.10;;;;;;6217677;23;19978;-91
2022/03/23 05:22:18;;;;;;;;;;;;;;;;;;;;;
2022/03/23 05:24:47;;;;;;;;;;;8.30;73.20;;;;;;6193134;23;19924;-90
2022/03/23 05:27:12;;;;;;;;;;;8.20;73.20;;;;;;6217097;23;19978;-89
2022/03/23 05:29:48;;;;;;;;;;;8.20;73.20;;;;;;6215313;23;19963;-90
2022/03/23 05:32:27;;;;;;;;;;;8.10;73.20;;;;;;6215487;23;20227;-88
2022/03/23 05:35:18;;;;;;;;;;;8.20;73.40;;;;;;6215550;23;19904;-90
2022/03/23 05:37:54;;;;;;;;;;;8.10;73.40;;;;;;6198054;23;19951;-90
2022/03/23 05:40:30;;;;;;;;;;;8.10;73.40;;;;;;6214811;23;19905;-89
2022/03/23 05:43:05;;;;;;;;;;;8.10;73.50;;;;;;6190994;23;19908;-90
2022/03/23 05:45:36;;;;;;;;;;;8.00;73.70;;;;;;6191545;23;19908;-91
2022/03/23 05:48:15;;;;;;;;;;;8.00;73.80;;;;;;6214122;23;20349;-90
2022/03/23 05:54:26;;;;;;;;;;;;;;;;;;;;;
2022/03/23 06:22:51;;;;;;;;;;;8.00;74.10;;;;;;6069813;23;19933;-91
2022/03/23 07:05:43;;;;;;;;;;;8.30;74.50;;;;;;5903059;24;19959;-90
2022/03/23 12:32:44;;;;;;;;;;;;;;;;;;;;;
2022/03/23 12:35:50;;;;;;;;;;;17.00;57.30;;;;;;6073775;23;20298;-93
2022/03/23 14:23:10;;;;;;;;;;;;;;;;;;;;;
2022/03/23 14:25:48;;;;;;;;;;;;;;;;;;;;;
2022/03/23 14:56:48;;;;;;;;;;;;;;;;;;;;;
2022/03/23 15:00:08;;;;;;;;;;;;;;;;;;;;;
2022/03/23 22:02:23;;;;;;;;;;;9.50;67.00;;;;;;5840685;24;19916;-93
2022/03/23 22:08:24;;;;;;;;;;;;;;;;;;;;;
2022/03/23 22:11:20;;;;;;;;;;;;;;;;;;;;;
2022/03/23 22:16:53;;;;;;;;;;;;;;;;;;;;;
2022/03/23 22:41:27;;;;;;;;;;;;;;;;;;;;;
2022/03/23 22:47:37;;;;;;;;;;;8.80;69.60;;;;;;6071009;23;19912;-92
2022/03/23 22:56:42;;;;;;;;;;;;;;;;;;;;;
2022/03/23 23:38:30;;;;;;;;;;;;;;;;;;;;;
2022/03/23 23:41:07;;;;;;;;;;;;;;;;;;;;;
2022/03/23 23:47:24;;;;;;;;;;;;;;;;;;;;;
2022/03/23 23:56:34;;;;;;;;;;;7.80;73.40;;;;;;6088246;23;19977;-93
